Time;durP1;ratioP1;P1;durP2;ratioP2;P2;SDS_P1;SDS_P2;PMS_P1;PMS_P2;Temp;Humidity;BMP_temperature;BMP_pressure;BME280_temperature;BME280_humidity;BME280_pressure;Samples;Min_cycle;Max_cycle;Signal;HPM_P1;HPM_P2
2022/01/26 00:00:40;;;;;;;10.43;6.20;;;;;;;;;;5114216;27;20937;-79
2022/01/26 00:05:54;;;;;;;9.77;6.73;;;;;;;;;;5113808;28;20451;-79
2022/01/26 00:08:25;;;;;;;8.67;6.20;;;;;;;;;;5114011;28;20456;-79
2022/01/26 00:10:53;;;;;;;10.10;6.50;;;;;;;;;;5114070;28;20421;-79
2022/01/26 00:13:20;;;;;;;11.57;6.90;;;;;;;;;;5113972;27;20444;-79
2022/01/26 00:15:48;;;;;;;15.53;10.40;;;;;;;;;;5113926;28;20433;-79
2022/01/26 00:18:17;;;;;;;19.17;11.83;;;;;;;;;;5114364;28;20433;-79
2022/01/26 00:20:51;;;;;;;12.50;8.43;;;;;;;;;;5112585;28;21052;-79
2022/01/26 00:23:36;;;;;;;29.97;20.13;;;;;;;;;;5113970;28;20450;-79
2022/01/26 00:26:11;;;;;;;11.43;7.87;;;;;;;;;;5113634;27;20461;-79
2022/01/26 00:28:57;;;;;;;39.60;23.10;;;;;;;;;;5113666;28;20429;-79
2022/01/26 00:38:34;;;;;;;11.23;7.80;;;;;;;;;;5113652;28;20991;-79
2022/01/26 00:39:52;;;;;;;11.47;7.37;;;;;;;;;;5081882;28;20826;-78
2022/01/26 00:42:21;;;;;;;12.67;8.97;;;;;;;;;;5113749;28;20820;-79
2022/01/26 00:44:49;;;;;;;12.13;8.07;;;;;;;;;;5113571;28;20452;-78
2022/01/26 00:47:17;;;;;;;10.03;6.77;;;;;;;;;;5113372;28;20538;-79
2022/01/26 00:49:44;;;;;;;10.73;6.50;;;;;;;;;;5113182;28;20485;-78
2022/01/26 00:52:17;;;;;;;8.83;6.23;;;;;;;;;;5112443;27;20539;-78
2022/01/26 00:54:44;;;;;;;8.30;5.73;;;;;;;;;;5133645;27;20420;-78
2022/01/26 00:57:11;;;;;;;7.03;5.50;;;;;;;;;;5133611;27;20527;-78
2022/01/26 00:59:40;;;;;;;8.37;5.60;;;;;;;;;;5131654;27;20445;-79
2022/01/26 01:02:07;;;;;;;8.87;6.30;;;;;;;;;;5132467;27;20975;-79
2022/01/26 01:04:34;;;;;;;18.23;7.70;;;;;;;;;;5133596;27;21012;-79
2022/01/26 01:07:04;;;;;;;6.47;4.90;;;;;;;;;;5133655;27;21003;-79
2022/01/26 01:09:34;;;;;;;8.90;5.47;;;;;;;;;;5133418;27;20440;-79
2022/01/26 01:12:03;;;;;;;6.27;5.10;;;;;;;;;;5133441;27;20433;-79
2022/01/26 01:14:36;;;;;;;9.63;6.87;;;;;;;;;;5133849;27;20963;-78
2022/01/26 01:17:07;;;;;;;7.80;5.13;;;;;;;;;;5133260;27;20467;-78
2022/01/26 01:19:38;;;;;;;10.57;6.50;;;;;;;;;;5133335;27;20436;-79
2022/01/26 01:22:37;;;;;;;8.80;6.30;;;;;;;;;;5133236;27;20471;-79
2022/01/26 01:30:39;;;;;;;9.07;5.80;;;;;;;;;;5132876;27;20399;-79
2022/01/26 01:33:09;;;;;;;5.90;4.17;;;;;;;;;;5133119;27;20440;-78
2022/01/26 01:35:39;;;;;;;6.43;5.20;;;;;;;;;;5133052;27;20481;-79
2022/01/26 01:38:09;;;;;;;7.63;5.57;;;;;;;;;;5133309;27;20475;-79
2022/01/26 01:40:37;;;;;;;10.70;5.63;;;;;;;;;;5132975;27;20480;-79
2022/01/26 01:43:06;;;;;;;8.63;6.10;;;;;;;;;;5133129;27;20432;-79
2022/01/26 01:45:35;;;;;;;9.10;5.90;;;;;;;;;;5132816;27;20944;-79
2022/01/26 01:48:02;;;;;;;8.77;5.53;;;;;;;;;;5132817;27;20450;-79
2022/01/26 01:50:35;;;;;;;8.57;5.43;;;;;;;;;;5133124;27;20515;-79
2022/01/26 01:53:02;;;;;;;8.27;5.70;;;;;;;;;;5133348;27;20826;-79
2022/01/26 01:55:32;;;;;;;10.43;6.47;;;;;;;;;;5133169;27;20455;-79
2022/01/26 01:58:00;;;;;;;6.77;5.43;;;;;;;;;;5132815;27;20489;-78
2022/01/26 02:00:28;;;;;;;8.17;5.70;;;;;;;;;;5132718;27;20440;-78
2022/01/26 02:02:55;;;;;;;6.70;5.00;;;;;;;;;;5132993;27;20858;-78
2022/01/26 02:05:22;;;;;;;6.83;4.87;;;;;;;;;;5132992;27;20951;-79
2022/01/26 02:07:51;;;;;;;7.93;5.33;;;;;;;;;;5132912;27;20472;-79
2022/01/26 02:10:18;;;;;;;8.63;5.93;;;;;;;;;;5132660;27;20451;-79
2022/01/26 02:12:50;;;;;;;10.63;7.77;;;;;;;;;;5132603;27;20451;-79
2022/01/26 02:15:21;;;;;;;7.50;5.27;;;;;;;;;;5132777;27;20424;-79
2022/01/26 02:20:52;;;;;;;7.77;5.37;;;;;;;;;;5132371;27;20975;-78
2022/01/26 02:56:27;;;;;;;6.93;4.30;;;;;;;;;;5135533;27;20436;-79
2022/01/26 02:59:12;;;;;;;5.90;4.33;;;;;;;;;;5136208;27;20468;-78
2022/01/26 03:01:49;;;;;;;5.90;4.20;;;;;;;;;;5136080;27;20440;-78
2022/01/26 03:04:24;;;;;;;7.90;5.57;;;;;;;;;;5135908;27;20493;-78
2022/01/26 03:06:57;;;;;;;8.70;4.50;;;;;;;;;;5135696;27;20512;-79
2022/01/26 03:09:30;;;;;;;5.60;4.37;;;;;;;;;;5135855;27;20429;-79
2022/01/26 03:11:59;;;;;;;7.77;4.27;;;;;;;;;;5115326;27;20528;-80
2022/01/26 03:14:36;;;;;;;6.07;4.67;;;;;;;;;;5115202;28;20445;-79
2022/01/26 03:17:11;;;;;;;7.63;4.80;;;;;;;;;;5114908;27;20481;-79
2022/01/26 03:19:42;;;;;;;7.27;5.40;;;;;;;;;;5114911;28;20425;-79
2022/01/26 03:28:09;;;;;;;7.33;4.57;;;;;;;;;;5115084;28;21019;-79
2022/01/26 03:33:56;;;;;;;9.27;4.93;;;;;;;;;;5095928;28;20804;-79
2022/01/26 03:36:26;;;;;;;4.43;3.90;;;;;;;;;;5114647;28;20944;-79
2022/01/26 03:39:00;;;;;;;6.60;4.70;;;;;;;;;;5113980;28;20432;-79
2022/01/26 03:41:37;;;;;;;7.97;5.03;;;;;;;;;;5114365;28;20432;-80
2022/01/26 03:44:06;;;;;;;7.57;5.17;;;;;;;;;;5114388;28;20963;-80
2022/01/26 03:46:33;;;;;;;6.80;5.60;;;;;;;;;;5114345;28;20530;-80
2022/01/26 03:49:00;;;;;;;7.80;4.90;;;;;;;;;;5114217;28;20453;-80
2022/01/26 03:51:28;;;;;;;6.00;4.43;;;;;;;;;;5114238;28;20441;-80
2022/01/26 03:53:55;;;;;;;6.93;5.20;;;;;;;;;;5113795;28;20938;-80
2022/01/26 03:56:23;;;;;;;7.67;4.87;;;;;;;;;;5114596;28;20437;-79
2022/01/26 03:58:51;;;;;;;5.00;3.63;;;;;;;;;;5114077;27;20445;-79
2022/01/26 04:01:19;;;;;;;6.27;3.87;;;;;;;;;;5114037;28;20449;-80
2022/01/26 04:03:46;;;;;;;4.40;3.97;;;;;;;;;;5113964;28;20817;-79
2022/01/26 04:06:13;;;;;;;4.13;3.70;;;;;;;;;;5114142;28;20452;-79
2022/01/26 04:08:43;;;;;;;4.87;4.03;;;;;;;;;;5113758;28;20449;-79
2022/01/26 04:11:28;;;;;;;4.73;4.33;;;;;;;;;;5113955;28;20988;-81
2022/01/26 04:13:57;;;;;;;5.80;4.10;;;;;;;;;;5114101;28;20452;-78
2022/01/26 04:16:24;;;;;;;6.13;4.77;;;;;;;;;;5114077;28;20445;-81
2022/01/26 04:18:53;;;;;;;6.77;4.20;;;;;;;;;;5113472;28;20448;-79
2022/01/26 04:21:28;;;;;;;8.53;5.30;;;;;;;;;;5112809;28;20452;-80
2022/01/26 04:24:00;;;;;;;6.70;4.23;;;;;;;;;;5106131;27;20446;-80
2022/01/26 04:26:32;;;;;;;7.13;4.47;;;;;;;;;;5092317;28;20934;-80
2022/01/26 04:29:05;;;;;;;7.87;4.47;;;;;;;;;;5092484;28;20427;-80
2022/01/26 04:31:32;;;;;;;8.47;4.53;;;;;;;;;;5092326;28;20441;-79
2022/01/26 04:33:59;;;;;;;4.20;3.80;;;;;;;;;;5091892;28;20438;-80
2022/01/26 04:36:31;;;;;;;6.63;4.30;;;;;;;;;;5092024;28;20954;-79
2022/01/26 04:39:03;;;;;;;5.73;4.43;;;;;;;;;;5098488;28;20945;-80
2022/01/26 04:41:35;;;;;;;4.77;3.70;;;;;;;;;;5112509;28;20432;-80
2022/01/26 04:44:09;;;;;;;4.10;3.50;;;;;;;;;;5106917;28;20469;-81
2022/01/26 04:46:37;;;;;;;6.30;4.47;;;;;;;;;;5091022;28;20426;-81
2022/01/26 04:49:04;;;;;;;4.87;4.37;;;;;;;;;;5090604;28;20461;-80
2022/01/26 04:51:31;;;;;;;4.77;3.87;;;;;;;;;;5091824;28;20426;-81
2022/01/26 04:53:58;;;;;;;5.07;3.70;;;;;;;;;;5092220;28;20530;-81
2022/01/26 04:56:25;;;;;;;4.03;3.20;;;;;;;;;;5091902;28;20950;-81
2022/01/26 04:58:53;;;;;;;3.77;3.17;;;;;;;;;;5091580;28;20446;-81
2022/01/26 05:01:21;;;;;;;3.93;3.50;;;;;;;;;;5091338;28;20444;-81
2022/01/26 05:03:49;;;;;;;3.63;3.33;;;;;;;;;;5091983;28;20968;-81
2022/01/26 05:06:16;;;;;;;5.13;4.00;;;;;;;;;;5090637;28;20446;-82
2022/01/26 05:08:43;;;;;;;5.47;3.43;;;;;;;;;;5091162;28;20831;-81
2022/01/26 05:11:14;;;;;;;4.77;3.73;;;;;;;;;;5091226;28;20434;-81
2022/01/26 05:13:41;;;;;;;7.07;4.47;;;;;;;;;;5091010;28;20446;-80
2022/01/26 05:16:09;;;;;;;10.60;4.63;;;;;;;;;;5091315;28;20442;-80
2022/01/26 05:18:38;;;;;;;5.97;4.33;;;;;;;;;;5091366;28;20529;-80
2022/01/26 05:21:05;;;;;;;19.53;6.53;;;;;;;;;;5091267;28;20491;-80
2022/01/26 05:23:32;;;;;;;11.30;6.90;;;;;;;;;;5091483;28;20939;-80
2022/01/26 05:25:59;;;;;;;10.17;6.50;;;;;;;;;;5111879;28;20448;-80
2022/01/26 05:28:26;;;;;;;8.63;5.33;;;;;;;;;;5111901;28;20881;-80
2022/01/26 05:30:54;;;;;;;7.90;5.37;;;;;;;;;;5112951;28;20445;-80
2022/01/26 05:33:23;;;;;;;5.67;5.00;;;;;;;;;;5112591;28;20439;-80
2022/01/26 05:35:52;;;;;;;6.83;4.67;;;;;;;;;;5112271;28;20976;-80
2022/01/26 05:38:20;;;;;;;6.63;4.60;;;;;;;;;;5112477;28;20870;-80
2022/01/26 05:40:47;;;;;;;6.40;5.27;;;;;;;;;;5112458;28;20473;-80
2022/01/26 05:43:15;;;;;;;6.60;5.47;;;;;;;;;;5112660;28;20437;-80
2022/01/26 05:45:46;;;;;;;8.47;4.10;;;;;;;;;;5112378;28;20996;-80
2022/01/26 05:48:14;;;;;;;4.70;4.13;;;;;;;;;;5112210;28;20461;-80
2022/01/26 05:50:49;;;;;;;6.33;4.80;;;;;;;;;;5112496;28;20976;-80
2022/01/26 05:53:21;;;;;;;6.87;5.10;;;;;;;;;;5112591;28;20560;-80
2022/01/26 05:55:49;;;;;;;9.03;6.30;;;;;;;;;;5112233;28;20947;-81
2022/01/26 05:58:16;;;;;;;5.70;4.53;;;;;;;;;;5112189;28;20479;-80
2022/01/26 06:00:44;;;;;;;9.57;6.90;;;;;;;;;;5112174;28;20445;-80
2022/01/26 06:03:11;;;;;;;12.47;7.27;;;;;;;;;;5112178;28;20532;-81
2022/01/26 06:05:39;;;;;;;6.23;4.90;;;;;;;;;;5112146;28;20510;-81
2022/01/26 06:08:06;;;;;;;10.03;6.03;;;;;;;;;;5112109;28;20957;-81
2022/01/26 06:10:35;;;;;;;5.27;4.37;;;;;;;;;;5112570;28;20532;-81
2022/01/26 06:13:02;;;;;;;7.80;5.80;;;;;;;;;;5112002;28;20449;-81
2022/01/26 06:15:30;;;;;;;8.90;6.00;;;;;;;;;;5112031;28;20934;-80
2022/01/26 06:17:57;;;;;;;14.80;13.27;;;;;;;;;;5115033;28;20444;-80
2022/01/26 06:20:24;;;;;;;12.50;9.30;;;;;;;;;;5116078;28;20451;-80
2022/01/26 06:22:52;;;;;;;6.13;5.53;;;;;;;;;;5115971;28;20452;-81
2022/01/26 06:25:19;;;;;;;5.93;4.47;;;;;;;;;;5116250;27;20445;-81
2022/01/26 06:27:51;;;;;;;10.70;7.87;;;;;;;;;;5116313;28;20480;-81
2022/01/26 06:30:18;;;;;;;7.37;6.27;;;;;;;;;;5116113;28;20430;-79
2022/01/26 06:32:45;;;;;;;8.73;6.27;;;;;;;;;;5115831;28;20449;-80
2022/01/26 06:35:13;;;;;;;6.90;5.37;;;;;;;;;;5115828;28;20433;-80
2022/01/26 06:37:40;;;;;;;7.70;6.00;;;;;;;;;;5115861;28;20445;-79
2022/01/26 06:40:08;;;;;;;7.80;5.90;;;;;;;;;;5115383;28;20469;-79
2022/01/26 06:42:48;;;;;;;8.37;5.80;;;;;;;;;;5116076;28;20825;-81
2022/01/26 06:45:19;;;;;;;8.37;5.37;;;;;;;;;;5116188;28;20467;-81
2022/01/26 06:47:55;;;;;;;7.03;4.43;;;;;;;;;;5115818;28;20461;-81
2022/01/26 06:50:23;;;;;;;9.00;5.47;;;;;;;;;;5115698;28;20433;-80
2022/01/26 06:52:50;;;;;;;12.67;6.07;;;;;;;;;;5115422;28;20449;-81
2022/01/26 06:55:19;;;;;;;12.57;6.67;;;;;;;;;;5115351;28;20543;-81
2022/01/26 06:57:46;;;;;;;9.30;6.47;;;;;;;;;;5115293;28;20447;-80
2022/01/26 07:00:16;;;;;;;12.20;5.83;;;;;;;;;;5115224;28;20828;-81
2022/01/26 07:02:44;;;;;;;9.97;6.47;;;;;;;;;;5115255;28;20260;-81
2022/01/26 07:05:12;;;;;;;7.20;4.97;;;;;;;;;;5115495;28;20447;-81
2022/01/26 07:07:39;;;;;;;4.63;3.77;;;;;;;;;;5115324;28;20473;-81
2022/01/26 07:10:07;;;;;;;4.50;4.03;;;;;;;;;;5115347;28;20543;-81
2022/01/26 07:12:35;;;;;;;7.17;6.43;;;;;;;;;;5114866;28;20436;-81
2022/01/26 07:23:13;;;;;;;11.77;6.37;;;;;;;;;;5114218;27;20480;-81
2022/01/26 07:25:40;;;;;;;12.27;5.67;;;;;;;;;;5115072;28;20203;-81
2022/01/26 07:28:07;;;;;;;12.23;5.10;;;;;;;;;;5112920;28;20229;-81
2022/01/26 07:30:36;;;;;;;7.57;5.70;;;;;;;;;;5112606;28;20451;-81
2022/01/26 07:33:05;;;;;;;5.60;4.20;;;;;;;;;;5114953;28;20239;-81
2022/01/26 07:35:32;;;;;;;4.60;4.20;;;;;;;;;;5114266;28;20195;-81
2022/01/26 07:38:02;;;;;;;5.00;4.50;;;;;;;;;;5114722;28;20560;-81
2022/01/26 07:40:30;;;;;;;6.90;5.30;;;;;;;;;;5114549;28;20639;-81
2022/01/26 07:42:57;;;;;;;10.50;6.17;;;;;;;;;;5114537;28;20710;-81
2022/01/26 07:45:24;;;;;;;13.53;8.23;;;;;;;;;;5114305;28;20575;-82
2022/01/26 07:47:54;;;;;;;5.60;4.77;;;;;;;;;;5114621;28;20219;-81
2022/01/26 07:50:23;;;;;;;5.80;4.30;;;;;;;;;;5114337;28;20256;-81
2022/01/26 07:52:51;;;;;;;8.27;6.07;;;;;;;;;;5114529;28;20303;-81
2022/01/26 07:55:20;;;;;;;12.43;7.63;;;;;;;;;;5114445;28;20191;-81
2022/01/26 07:57:50;;;;;;;7.10;5.10;;;;;;;;;;5114083;28;20560;-81
2022/01/26 08:00:19;;;;;;;7.63;5.63;;;;;;;;;;5114331;28;20188;-81
2022/01/26 08:02:46;;;;;;;14.60;9.27;;;;;;;;;;5114346;28;20200;-81
2022/01/26 08:05:14;;;;;;;12.00;9.50;;;;;;;;;;5114064;28;20286;-82
2022/01/26 08:07:43;;;;;;;19.67;11.57;;;;;;;;;;5113841;28;20317;-82
2022/01/26 08:10:11;;;;;;;11.97;9.83;;;;;;;;;;5114246;28;20580;-82
2022/01/26 08:12:39;;;;;;;11.67;9.33;;;;;;;;;;5113986;28;20664;-81
2022/01/26 08:15:07;;;;;;;10.40;7.97;;;;;;;;;;5113895;28;20195;-81
2022/01/26 08:17:35;;;;;;;7.03;5.20;;;;;;;;;;5113839;28;20698;-81
2022/01/26 08:20:04;;;;;;;8.00;6.27;;;;;;;;;;5114001;28;20449;-82
2022/01/26 08:22:32;;;;;;;8.53;6.20;;;;;;;;;;5113702;28;20204;-81
2022/01/26 08:25:00;;;;;;;7.20;6.50;;;;;;;;;;5113744;28;20214;-81
2022/01/26 08:27:32;;;;;;;11.93;5.77;;;;;;;;;;5113805;28;20552;-81
2022/01/26 08:30:06;;;;;;;8.70;6.00;;;;;;;;;;5113654;28;20191;-82
2022/01/26 08:32:33;;;;;;;9.90;6.30;;;;;;;;;;5113683;28;20199;-82
2022/01/26 08:35:00;;;;;;;6.07;4.60;;;;;;;;;;5113527;28;20202;-81
2022/01/26 08:37:28;;;;;;;7.03;4.90;;;;;;;;;;5113474;28;20663;-81
2022/01/26 08:39:55;;;;;;;6.83;5.03;;;;;;;;;;5112676;28;20281;-82
2022/01/26 08:42:24;;;;;;;6.33;4.33;;;;;;;;;;5113265;28;20222;-82
2022/01/26 08:44:52;;;;;;;6.93;4.97;;;;;;;;;;5113291;28;20199;-82
2022/01/26 08:47:19;;;;;;;9.80;7.93;;;;;;;;;;5113270;28;20575;-82
2022/01/26 08:49:47;;;;;;;9.03;8.07;;;;;;;;;;5113241;28;20215;-82
2022/01/26 08:52:14;;;;;;;13.50;10.60;;;;;;;;;;5113148;28;20234;-82
2022/01/26 08:54:44;;;;;;;9.17;7.17;;;;;;;;;;5113072;28;20687;-82
2022/01/26 08:57:11;;;;;;;11.77;7.20;;;;;;;;;;5113141;28;20211;-82
2022/01/26 08:59:40;;;;;;;7.47;5.60;;;;;;;;;;5112869;28;20700;-82
2022/01/26 09:02:08;;;;;;;6.00;5.10;;;;;;;;;;5113062;28;20223;-82
2022/01/26 09:04:36;;;;;;;5.47;4.70;;;;;;;;;;5113126;28;20204;-83
2022/01/26 09:07:04;;;;;;;4.50;3.53;;;;;;;;;;5112983;28;20210;-83
2022/01/26 09:09:41;;;;;;;8.17;5.43;;;;;;;;;;5112864;28;20314;-82
2022/01/26 09:12:10;;;;;;;13.40;7.53;;;;;;;;;;5112684;28;20274;-83
2022/01/26 09:14:37;;;;;;;8.03;6.87;;;;;;;;;;5112529;28;20652;-83
2022/01/26 09:17:07;;;;;;;7.80;6.17;;;;;;;;;;5113047;28;20199;-83
2022/01/26 09:19:38;;;;;;;9.80;7.37;;;;;;;;;;5113039;28;20182;-83
2022/01/26 09:22:06;;;;;;;7.37;6.03;;;;;;;;;;5112847;28;20191;-83
2022/01/26 09:24:35;;;;;;;7.80;6.50;;;;;;;;;;5112916;28;20195;-83
2022/01/26 09:27:03;;;;;;;10.03;6.60;;;;;;;;;;5112326;28;20198;-82
2022/01/26 09:29:31;;;;;;;7.67;6.10;;;;;;;;;;5112378;28;20225;-83
2022/01/26 09:32:07;;;;;;;9.27;7.43;;;;;;;;;;5112421;28;20192;-83
2022/01/26 09:34:37;;;;;;;13.33;6.53;;;;;;;;;;5112469;28;20190;-83
2022/01/26 09:37:05;;;;;;;14.83;7.10;;;;;;;;;;5112374;28;20207;-84
2022/01/26 09:39:32;;;;;;;9.30;6.20;;;;;;;;;;5111601;28;20276;-84
2022/01/26 09:41:59;;;;;;;8.60;6.60;;;;;;;;;;5112646;28;20293;-84
2022/01/26 09:44:27;;;;;;;10.57;7.10;;;;;;;;;;5112285;28;20580;-84
2022/01/26 09:47:06;;;;;;;10.77;7.30;;;;;;;;;;5112433;28;20672;-84
2022/01/26 09:49:46;;;;;;;10.73;8.17;;;;;;;;;;5112355;28;20229;-85
2022/01/26 09:52:26;;;;;;;9.67;7.57;;;;;;;;;;5112413;28;20198;-85
2022/01/26 09:54:59;;;;;;;10.43;6.33;;;;;;;;;;5112256;28;20585;-85
2022/01/26 09:57:30;;;;;;;9.07;6.70;;;;;;;;;;5112794;28;20652;-85
2022/01/26 09:59:58;;;;;;;9.50;5.93;;;;;;;;;;5112026;28;20196;-85
2022/01/26 10:02:31;;;;;;;8.80;7.33;;;;;;;;;;5112473;28;20294;-85
2022/01/26 10:05:02;;;;;;;24.57;16.23;;;;;;;;;;5112070;28;20183;-86
2022/01/26 10:07:43;;;;;;;10.23;8.37;;;;;;;;;;5112179;28;20190;-84
2022/01/26 10:15:25;;;;;;;11.67;6.00;;;;;;;;;;5112655;28;20207;-85
2022/01/26 10:16:39;;;;;;;8.73;7.37;;;;;;;;;;5112487;28;20179;-85
2022/01/26 10:19:14;;;;;;;6.73;5.70;;;;;;;;;;5111846;28;20200;-86
2022/01/26 10:21:47;;;;;;;6.20;5.60;;;;;;;;;;5111812;27;20290;-85
2022/01/26 10:24:15;;;;;;;6.63;5.93;;;;;;;;;;5112330;28;20184;-85
2022/01/26 10:26:48;;;;;;;8.20;5.60;;;;;;;;;;5112241;28;20200;-86
2022/01/26 10:29:19;;;;;;;8.87;6.97;;;;;;;;;;5112181;28;20226;-86
2022/01/26 10:31:46;;;;;;;6.23;5.10;;;;;;;;;;5112249;28;20614;-86
2022/01/26 10:34:16;;;;;;;6.43;4.43;;;;;;;;;;5112391;28;20268;-86
2022/01/26 10:36:45;;;;;;;5.77;4.37;;;;;;;;;;5112173;28;20198;-85
2022/01/26 10:39:19;;;;;;;32.43;14.37;;;;;;;;;;5111899;28;20224;-86
2022/01/26 10:41:48;;;;;;;28.57;16.67;;;;;;;;;;5111913;28;20184;-85
2022/01/26 10:44:28;;;;;;;9.50;7.43;;;;;;;;;;5112348;28;20188;-86
2022/01/26 10:46:56;;;;;;;6.23;5.20;;;;;;;;;;5111994;28;20196;-86
2022/01/26 10:49:44;;;;;;;7.03;5.87;;;;;;;;;;5112269;28;20211;-86
2022/01/26 10:52:20;;;;;;;6.37;5.07;;;;;;;;;;5112093;28;20268;-86
2022/01/26 10:54:48;;;;;;;8.47;7.23;;;;;;;;;;5111950;28;20271;-86
2022/01/26 10:57:15;;;;;;;7.63;5.47;;;;;;;;;;5111634;28;20206;-85
2022/01/26 10:59:45;;;;;;;6.77;5.30;;;;;;;;;;5111839;28;20616;-86
2022/01/26 11:02:24;;;;;;;5.27;4.77;;;;;;;;;;5111613;28;20206;-86
2022/01/26 11:04:53;;;;;;;7.10;4.97;;;;;;;;;;5114198;28;20184;-85
2022/01/26 11:07:20;;;;;;;8.73;6.17;;;;;;;;;;5115469;28;20652;-86
2022/01/26 11:09:53;;;;;;;7.63;5.17;;;;;;;;;;5115089;28;20215;-85
2022/01/26 11:12:29;;;;;;;5.13;4.00;;;;;;;;;;5115352;28;20752;-85
2022/01/26 11:14:59;;;;;;;5.57;5.00;;;;;;;;;;5115431;28;20179;-85
2022/01/26 11:17:28;;;;;;;5.67;5.07;;;;;;;;;;5115428;28;20214;-85
2022/01/26 11:19:58;;;;;;;6.63;5.67;;;;;;;;;;5115064;28;20304;-85
2022/01/26 11:22:28;;;;;;;6.27;5.03;;;;;;;;;;5115202;28;20278;-85
2022/01/26 11:24:57;;;;;;;6.20;4.80;;;;;;;;;;5114970;28;20278;-85
2022/01/26 11:27:34;;;;;;;5.00;4.50;;;;;;;;;;5113837;27;20195;-86
2022/01/26 11:30:18;;;;;;;8.37;6.87;;;;;;;;;;5114824;28;20203;-85
2022/01/26 11:32:55;;;;;;;7.90;5.53;;;;;;;;;;5114832;28;20184;-86
2022/01/26 11:35:28;;;;;;;8.23;6.47;;;;;;;;;;5114930;28;20226;-85
2022/01/26 11:47:21;;;;;;;12.07;5.27;;;;;;;;;;5114778;28;20179;-85
2022/01/26 11:49:52;;;;;;;6.70;4.93;;;;;;;;;;5114588;28;20219;-85
2022/01/26 11:52:25;;;;;;;5.43;4.77;;;;;;;;;;5114531;28;20207;-85
2022/01/26 11:54:55;;;;;;;5.23;4.73;;;;;;;;;;5114334;28;20205;-85
2022/01/26 11:57:38;;;;;;;10.03;5.37;;;;;;;;;;5114198;28;20200;-85
2022/01/26 12:00:13;;;;;;;10.57;6.17;;;;;;;;;;5114805;28;20640;-85
2022/01/26 12:02:52;;;;;;;6.70;5.60;;;;;;;;;;5114533;28;20257;-86
2022/01/26 12:05:23;;;;;;;6.53;4.70;;;;;;;;;;5114189;28;20248;-85
2022/01/26 12:07:53;;;;;;;5.70;4.53;;;;;;;;;;5114285;28;20187;-85
2022/01/26 12:10:26;;;;;;;6.43;5.43;;;;;;;;;;5114084;28;20223;-86
2022/01/26 12:13:02;;;;;;;6.67;5.30;;;;;;;;;;5113822;28;20279;-85
2022/01/26 12:15:31;;;;;;;4.33;3.67;;;;;;;;;;5114338;28;20236;-85
2022/01/26 12:18:15;;;;;;;6.63;3.87;;;;;;;;;;5114405;28;20195;-86
2022/01/26 12:32:17;;;;;;;8.00;4.33;;;;;;;;;;5113915;28;20182;-85
2022/01/26 12:34:50;;;;;;;8.80;3.60;;;;;;;;;;5113683;28;20187;-86
2022/01/26 12:37:35;;;;;;;6.93;5.17;;;;;;;;;;5113608;28;20256;-86
2022/01/26 12:43:03;;;;;;;5.40;4.30;;;;;;;;;;5113751;28;20558;-85
2022/01/26 12:45:30;;;;;;;7.00;4.97;;;;;;;;;;5113302;28;20248;-85
2022/01/26 12:48:04;;;;;;;3.53;3.23;;;;;;;;;;5113414;28;20184;-86
2022/01/26 12:50:31;;;;;;;4.70;3.67;;;;;;;;;;5113063;28;20219;-86
2022/01/26 12:52:59;;;;;;;5.97;4.90;;;;;;;;;;5113326;28;20234;-86
2022/01/26 12:55:30;;;;;;;9.93;5.97;;;;;;;;;;5113412;28;20222;-85
2022/01/26 12:58:24;;;;;;;4.97;4.43;;;;;;;;;;5113340;28;20625;-85
2022/01/26 13:00:51;;;;;;;4.57;3.63;;;;;;;;;;5113225;28;20218;-86
2022/01/26 13:03:20;;;;;;;4.40;4.00;;;;;;;;;;5113197;28;20287;-86
2022/01/26 13:05:50;;;;;;;6.33;3.30;;;;;;;;;;5113197;28;20195;-86
2022/01/26 13:08:20;;;;;;;7.23;4.00;;;;;;;;;;5113054;28;20274;-85
2022/01/26 13:10:49;;;;;;;4.53;3.90;;;;;;;;;;5113108;28;20254;-86
2022/01/26 13:13:22;;;;;;;7.17;5.93;;;;;;;;;;5113079;28;20313;-85
2022/01/26 13:15:55;;;;;;;10.73;8.07;;;;;;;;;;5113096;28;20206;-85
2022/01/26 13:18:46;;;;;;;7.30;4.67;;;;;;;;;;5112812;28;20196;-86
2022/01/26 13:21:39;;;;;;;4.70;4.23;;;;;;;;;;5113038;28;20679;-85
2022/01/26 13:24:30;;;;;;;4.90;4.07;;;;;;;;;;5112463;28;20190;-85
2022/01/26 13:27:08;;;;;;;6.17;4.90;;;;;;;;;;5112370;28;20282;-86
2022/01/26 13:29:49;;;;;;;4.07;3.77;;;;;;;;;;5113195;28;20675;-87
2022/01/26 13:32:45;;;;;;;5.23;4.33;;;;;;;;;;5113195;28;20187;-86
2022/01/26 13:35:35;;;;;;;6.30;5.03;;;;;;;;;;5112967;28;20276;-86
2022/01/26 13:38:16;;;;;;;5.50;4.60;;;;;;;;;;5112642;28;20211;-87
2022/01/26 13:40:55;;;;;;;8.33;5.00;;;;;;;;;;5112538;28;20234;-87
2022/01/26 13:46:47;;;;;;;5.17;4.77;;;;;;;;;;5112501;28;20183;-86
2022/01/26 13:49:38;;;;;;;6.27;5.37;;;;;;;;;;5112839;28;20175;-86
2022/01/26 13:55:22;;;;;;;32.63;19.93;;;;;;;;;;5103169;28;20191;-86
2022/01/26 14:00:56;;;;;;;14.70;9.00;;;;;;;;;;5049646;28;20359;-85
2022/01/26 14:03:26;;;;;;;13.77;9.40;;;;;;;;;;5101484;28;20732;-86
2022/01/26 14:05:54;;;;;;;16.83;10.20;;;;;;;;;;5112175;28;20219;-86
2022/01/26 14:08:22;;;;;;;8.30;6.67;;;;;;;;;;5112168;28;20194;-87
2022/01/26 14:10:49;;;;;;;7.67;5.40;;;;;;;;;;5112200;28;20223;-86
2022/01/26 14:13:20;;;;;;;6.77;5.30;;;;;;;;;;5112425;28;20226;-87
2022/01/26 14:15:55;;;;;;;7.00;5.43;;;;;;;;;;5112176;28;20180;-87
2022/01/26 14:21:29;;;;;;;10.93;5.80;;;;;;;;;;5069663;28;20185;-87
2022/01/26 14:26:39;;;;;;;5.73;4.60;;;;;;;;;;5099235;28;20272;-87
2022/01/26 14:29:23;;;;;;;6.03;4.57;;;;;;;;;;5112088;28;20195;-86
2022/01/26 14:51:42;;;;;;;10.47;6.77;;;;;;;;;;5115747;28;20213;-84
2022/01/26 15:00:16;;;;;;;10.03;6.77;;;;;;;;;;5115715;28;20214;-85
2022/01/26 15:33:43;;;;;;;7.33;4.50;;;;;;;;;;5057458;28;20236;-84
2022/01/26 15:42:20;;;;;;;8.27;6.70;;;;;;;;;;5115030;28;20191;-84
2022/01/26 15:45:02;;;;;;;18.97;12.27;;;;;;;;;;5115041;28;20187;-85
2022/01/26 15:50:35;;;;;;;24.23;14.90;;;;;;;;;;5114114;28;20206;-84
2022/01/26 15:53:07;;;;;;;20.20;11.97;;;;;;;;;;5114434;28;20192;-85
2022/01/26 15:58:33;;;;;;;24.27;14.70;;;;;;;;;;5114484;28;20268;-85
2022/01/26 16:06:56;;;;;;;10.90;8.07;;;;;;;;;;5114192;28;20675;-85
2022/01/26 16:26:32;;;;;;;8.87;7.17;;;;;;;;;;5115084;28;20670;-87
2022/01/26 17:02:57;;;;;;;18.30;10.37;;;;;;;;;;5112469;28;20344;-86
2022/01/26 17:11:47;;;;;;;25.83;15.33;;;;;;;;;;5112969;28;20207;-85
2022/01/26 18:04:48;;;;;;;15.20;10.73;;;;;;;;;;5029999;28;20201;-85
2022/01/26 18:13:02;;;;;;;8.10;6.53;;;;;;;;;;5029722;28;20198;-85
2022/01/26 18:13:14;;;;;;;8.57;5.57;;;;;;;;;;5029704;28;20182;-83
2022/01/26 18:15:47;;;;;;;6.10;4.97;;;;;;;;;;5059055;28;20200;-84
2022/01/26 18:26:39;;;;;;;7.43;5.10;;;;;;;;;;5094764;28;20313;-84
2022/01/26 18:51:22;;;;;;;6.40;5.40;;;;;;;;;;5052441;28;20256;-86
2022/01/26 18:53:50;;;;;;;8.27;6.57;;;;;;;;;;5052603;28;20194;-86
2022/01/26 18:56:17;;;;;;;6.93;6.20;;;;;;;;;;5052252;28;20198;-85
2022/01/26 18:58:46;;;;;;;26.80;12.70;;;;;;;;;;5051942;28;20194;-85
2022/01/26 19:01:13;;;;;;;49.00;20.17;;;;;;;;;;5052098;28;20205;-86
2022/01/26 19:03:40;;;;;;;38.90;18.70;;;;;;;;;;5051808;28;20609;-85
2022/01/26 19:06:07;;;;;;;22.47;13.00;;;;;;;;;;5052110;28;20234;-86
2022/01/26 19:08:35;;;;;;;9.67;7.17;;;;;;;;;;5052070;28;20221;-85
2022/01/26 19:11:02;;;;;;;10.57;7.13;;;;;;;;;;5051952;28;20780;-85
2022/01/26 19:13:31;;;;;;;9.50;7.23;;;;;;;;;;5052023;28;20587;-85
2022/01/26 19:16:05;;;;;;;7.47;5.97;;;;;;;;;;5052116;28;20230;-86
2022/01/26 19:18:48;;;;;;;10.27;7.40;;;;;;;;;;5051930;28;20281;-87
2022/01/26 19:21:22;;;;;;;8.47;6.83;;;;;;;;;;5054889;28;20190;-85
2022/01/26 19:24:10;;;;;;;8.17;5.83;;;;;;;;;;5094439;28;20188;-86
2022/01/26 19:26:43;;;;;;;9.50;6.20;;;;;;;;;;5093724;28;20269;-86
2022/01/26 19:29:21;;;;;;;7.20;5.97;;;;;;;;;;5094200;28;20673;-86
2022/01/26 19:40:48;;;;;;;6.27;5.17;;;;;;;;;;5093946;28;20290;-86
2022/01/26 19:46:04;;;;;;;6.70;6.03;;;;;;;;;;5090425;28;20200;-86
2022/01/26 19:51:17;;;;;;;6.13;5.30;;;;;;;;;;5094164;28;20695;-86
2022/01/26 19:53:44;;;;;;;8.87;6.93;;;;;;;;;;5093727;28;20680;-86
2022/01/26 19:56:12;;;;;;;7.53;5.70;;;;;;;;;;5093758;28;20240;-86
2022/01/26 19:58:39;;;;;;;6.47;5.07;;;;;;;;;;5093884;28;20280;-85
2022/01/26 20:01:07;;;;;;;6.10;5.07;;;;;;;;;;5093601;28;20228;-86
2022/01/26 20:03:35;;;;;;;6.73;5.73;;;;;;;;;;5093829;28;20196;-85
2022/01/26 20:06:06;;;;;;;6.40;4.70;;;;;;;;;;5093242;28;20902;-85
2022/01/26 20:08:38;;;;;;;9.53;4.80;;;;;;;;;;5093652;28;20594;-86
2022/01/26 20:11:09;;;;;;;6.67;5.13;;;;;;;;;;5092984;28;20208;-86
2022/01/26 20:13:40;;;;;;;7.10;5.37;;;;;;;;;;5093351;28;20180;-86
2022/01/26 20:16:08;;;;;;;7.10;5.37;;;;;;;;;;5093187;28;20187;-85
2022/01/26 20:18:37;;;;;;;7.10;5.87;;;;;;;;;;5093413;28;20232;-86
2022/01/26 20:21:05;;;;;;;6.83;5.47;;;;;;;;;;5093403;28;20192;-87
2022/01/26 20:23:35;;;;;;;8.53;6.50;;;;;;;;;;5093196;28;20216;-86
2022/01/26 20:26:04;;;;;;;10.07;6.70;;;;;;;;;;5093420;28;20664;-86
2022/01/26 20:28:34;;;;;;;7.17;5.43;;;;;;;;;;5093191;28;20206;-86
2022/01/26 20:31:04;;;;;;;9.13;6.17;;;;;;;;;;5093385;28;20222;-86
2022/01/26 20:33:31;;;;;;;7.90;6.10;;;;;;;;;;5093309;28;20550;-86
2022/01/26 20:36:00;;;;;;;8.73;7.23;;;;;;;;;;5093350;28;20283;-87
2022/01/26 20:38:27;;;;;;;8.57;6.27;;;;;;;;;;5093240;28;20196;-86
2022/01/26 20:40:55;;;;;;;7.47;6.00;;;;;;;;;;5092890;28;20262;-85